createdAt,value
2023-02-18T00:00:20.047Z,6.55
2023-02-18T00:02:47.068Z,5.35
2023-02-18T00:05:14.597Z,5.40
2023-02-18T00:07:42.524Z,6.18
2023-02-18T00:10:12.933Z,5.85
2023-02-18T00:12:39.845Z,5.70
2023-02-18T00:15:06.707Z,6.18
2023-02-18T00:17:33.415Z,5.00
2023-02-18T00:20:00.053Z,5.55
2023-02-18T00:22:26.624Z,5.85
2023-02-18T00:24:53.205Z,5.68
2023-02-18T00:27:19.752Z,5.05
2023-02-18T00:29:46.447Z,5.57
2023-02-18T00:32:13.060Z,5.22
2023-02-18T00:34:39.564Z,4.50
2023-02-18T00:37:06.080Z,4.90
2023-02-18T00:39:32.611Z,4.85
2023-02-18T00:41:59.273Z,4.35
2023-02-18T00:44:25.854Z,4.47
2023-02-18T00:46:52.380Z,4.88
2023-02-18T00:49:18.895Z,3.80
2023-02-18T00:51:46.575Z,3.83
2023-02-18T00:54:13.309Z,4.95
2023-02-18T00:56:39.775Z,4.70
2023-02-18T00:59:06.443Z,3.78
2023-02-18T01:01:33.284Z,4.80
2023-02-18T01:03:59.880Z,3.63
2023-02-18T01:06:26.474Z,4.32
2023-02-18T01:08:53.026Z,4.05
2023-02-18T01:11:19.642Z,5.10
2023-02-18T01:13:46.393Z,4.53
2023-02-18T01:16:12.944Z,3.75
2023-02-18T01:18:40.331Z,3.97
2023-02-18T01:21:08.453Z,4.50
2023-02-18T01:23:36.734Z,4.43
2023-02-18T01:26:03.379Z,4.22
2023-02-18T01:28:29.995Z,4.75
2023-02-18T01:30:56.729Z,4.03
2023-02-18T01:33:23.267Z,3.55
2023-02-18T01:35:49.831Z,3.97
2023-02-18T01:38:16.419Z,4.90
2023-02-18T01:40:48.744Z,4.75
2023-02-18T01:43:15.894Z,4.40
2023-02-18T01:45:45.198Z,3.95
2023-02-18T01:49:02.285Z,3.67
2023-02-18T01:51:32.387Z,4.15
2023-02-18T01:54:25.144Z,4.32
2023-02-18T01:57:06.211Z,3.70
2023-02-18T01:59:39.615Z,3.75
2023-02-18T02:02:10.749Z,3.95
2023-02-18T02:04:37.315Z,4.30
2023-02-18T02:07:05.418Z,3.90
2023-02-18T02:09:33.779Z,3.13
2023-02-18T02:12:26.444Z,3.72
2023-02-18T02:15:06.493Z,2.97
2023-02-18T02:17:45.013Z,3.15
2023-02-18T02:20:51.056Z,3.25
2023-02-18T02:23:32.517Z,2.72
2023-02-18T02:26:34.032Z,3.80
2023-02-18T02:29:37.818Z,2.92
2023-02-18T02:32:25.967Z,2.55
2023-02-18T02:35:11.431Z,3.15
2023-02-18T02:38:11.078Z,3.33
2023-02-18T02:41:06.766Z,3.78
2023-02-18T02:44:05.235Z,4.20
2023-02-18T02:46:34.335Z,3.33
2023-02-18T02:49:12.720Z,3.63
2023-02-18T02:51:52.906Z,4.25
2023-02-18T02:54:23.318Z,4.05
2023-02-18T02:56:50.461Z,3.72
2023-02-18T02:59:23.638Z,3.50
2023-02-18T03:02:22.395Z,3.45
2023-02-18T03:05:08.741Z,2.22
2023-02-18T03:07:55.435Z,3.15
2023-02-18T03:10:40.722Z,2.38
2023-02-18T03:13:40.943Z,2.60
2023-02-18T03:16:32.280Z,3.00
2023-02-18T03:19:17.241Z,2.65
2023-02-18T03:22:08.455Z,2.95
2023-02-18T03:24:45.709Z,2.85
2023-02-18T03:27:23.467Z,2.50
2023-02-18T03:29:59.238Z,2.60
2023-02-18T03:32:28.963Z,2.50
2023-02-18T03:35:01.892Z,1.63
2023-02-18T03:37:31.914Z,2.55
2023-02-18T03:40:01.316Z,2.10
2023-02-18T03:42:29.053Z,2.80
2023-02-18T03:44:55.813Z,1.75
2023-02-18T03:47:23.218Z,1.85
2023-02-18T03:49:49.749Z,2.03
2023-02-18T03:52:16.362Z,2.10
2023-02-18T03:54:42.970Z,2.10
2023-02-18T03:57:09.553Z,2.28
2023-02-18T03:59:36.058Z,1.70
2023-02-18T04:02:02.621Z,1.75
2023-02-18T04:04:30.470Z,1.95
2023-02-18T04:06:57.000Z,2.35
2023-02-18T04:09:23.530Z,1.70
2023-02-18T04:11:50.054Z,1.70
2023-02-18T04:14:16.592Z,2.05
2023-02-18T04:16:43.419Z,1.77
2023-02-18T04:19:10.100Z,1.42
2023-02-18T04:21:36.629Z,3.33
2023-02-18T04:24:03.381Z,2.90
2023-02-18T04:26:30.171Z,2.40
2023-02-18T04:28:56.656Z,2.53
2023-02-18T04:31:23.355Z,2.92
2023-02-18T04:33:49.904Z,3.00
2023-02-18T04:36:16.412Z,2.55
2023-02-18T04:38:43.227Z,2.58
2023-02-18T04:41:09.873Z,2.20
2023-02-18T04:43:36.408Z,2.28
2023-02-18T04:46:02.972Z,2.15
2023-02-18T04:48:29.799Z,2.30
2023-02-18T04:50:56.581Z,2.25
2023-02-18T04:53:23.162Z,2.60
2023-02-18T04:55:51.279Z,2.42
2023-02-18T04:58:18.691Z,2.95
2023-02-18T05:00:45.714Z,2.20
2023-02-18T05:03:12.412Z,2.00
2023-02-18T05:05:38.962Z,2.17
2023-02-18T05:08:05.629Z,2.10
2023-02-18T05:10:32.422Z,2.33
2023-02-18T05:12:58.917Z,2.33
2023-02-18T05:15:25.557Z,2.83
2023-02-18T05:17:52.173Z,2.40
2023-02-18T05:20:18.920Z,2.13
2023-02-18T05:22:45.403Z,2.03
2023-02-18T05:25:11.910Z,2.17
2023-02-18T05:27:38.427Z,2.25
2023-02-18T05:30:07.007Z,2.33
2023-02-18T05:32:33.573Z,2.15
2023-02-18T05:35:00.103Z,1.92
2023-02-18T05:37:26.612Z,1.77
2023-02-18T05:39:53.137Z,1.88
2023-02-18T05:42:19.672Z,1.80
2023-02-18T05:44:46.354Z,1.85
2023-02-18T05:47:13.403Z,2.03
2023-02-18T05:49:41.690Z,1.60
2023-02-18T05:52:09.134Z,2.00
2023-02-18T05:54:37.019Z,1.67
2023-02-18T05:57:03.866Z,1.88
2023-02-18T05:59:31.281Z,2.15
2023-02-18T06:01:57.925Z,1.65
2023-02-18T06:04:24.525Z,1.48
2023-02-18T06:06:51.104Z,1.33
2023-02-18T06:09:17.680Z,1.45
2023-02-18T06:11:44.210Z,0.95
2023-02-18T06:14:10.807Z,1.77
2023-02-18T06:16:37.674Z,0.95
2023-02-18T06:19:04.392Z,1.05
2023-02-18T06:21:30.961Z,1.40
2023-02-18T06:23:57.538Z,1.38
2023-02-18T06:26:24.294Z,0.90
2023-02-18T06:28:51.005Z,1.50
2023-02-18T06:31:17.872Z,1.20
2023-02-18T06:33:44.439Z,0.65
2023-02-18T06:36:12.530Z,1.10
2023-02-18T06:38:42.023Z,1.00
2023-02-18T06:41:09.106Z,1.05
2023-02-18T06:43:35.921Z,1.65
2023-02-18T06:46:03.702Z,1.00
2023-02-18T06:48:30.393Z,1.20
2023-02-18T06:50:57.202Z,1.38
2023-02-18T06:53:24.078Z,0.88
2023-02-18T06:55:50.651Z,1.10
2023-02-18T06:58:17.140Z,1.23
2023-02-18T07:00:44.334Z,1.30
2023-02-18T07:03:13.305Z,1.23
2023-02-18T07:05:39.907Z,1.15
2023-02-18T07:08:06.445Z,1.20
2023-02-18T07:10:32.990Z,1.25
2023-02-18T07:12:59.508Z,1.20
2023-02-18T07:15:26.031Z,0.85
2023-02-18T07:17:52.745Z,1.10
2023-02-18T07:20:20.863Z,0.70
2023-02-18T07:22:47.680Z,0.73
2023-02-18T07:25:14.588Z,0.80
2023-02-18T07:27:41.136Z,0.82
2023-02-18T07:30:08.575Z,0.90
2023-02-18T07:32:35.273Z,1.00
2023-02-18T07:35:02.496Z,1.20
2023-02-18T07:37:29.043Z,1.10
2023-02-18T07:39:55.653Z,1.23
2023-02-18T07:42:22.784Z,1.35
2023-02-18T07:44:49.339Z,1.38
2023-02-18T07:47:17.511Z,2.20
2023-02-18T07:49:44.067Z,1.35
2023-02-18T07:52:10.575Z,1.40
2023-02-18T07:54:37.140Z,1.77
2023-02-18T07:57:03.772Z,1.23
2023-02-18T07:59:30.578Z,1.27
2023-02-18T08:01:57.104Z,1.15
2023-02-18T08:04:23.889Z,1.40
2023-02-18T08:06:50.936Z,1.45
2023-02-18T08:09:17.976Z,2.15
2023-02-18T08:11:44.589Z,1.98
2023-02-18T08:14:11.529Z,1.70
2023-02-18T08:16:38.358Z,1.90
2023-02-18T08:19:04.942Z,1.70
2023-02-18T08:21:31.873Z,1.50
2023-02-18T08:23:59.646Z,1.90
2023-02-18T08:26:26.808Z,1.48
2023-02-18T08:28:53.302Z,1.35
2023-02-18T08:31:26.650Z,1.15
2023-02-18T08:33:55.170Z,1.50
2023-02-18T08:36:22.749Z,1.60
2023-02-18T08:38:49.606Z,2.30
2023-02-18T08:41:16.682Z,1.48
2023-02-18T08:43:43.446Z,1.67
2023-02-18T08:46:15.851Z,2.53
2023-02-18T08:48:43.559Z,1.85
2023-02-18T08:51:19.570Z,1.90
2023-02-18T08:53:46.372Z,1.70
2023-02-18T08:56:14.719Z,2.17
2023-02-18T08:58:42.036Z,1.95
2023-02-18T09:01:11.020Z,2.22
2023-02-18T09:03:38.668Z,1.23
2023-02-18T09:06:05.799Z,1.35
2023-02-18T09:08:32.545Z,2.03
2023-02-18T09:11:01.763Z,1.52
2023-02-18T09:13:28.559Z,1.58
2023-02-18T09:16:04.406Z,1.35
2023-02-18T09:18:31.707Z,2.28
2023-02-18T09:20:59.970Z,2.17
2023-02-18T09:23:31.255Z,1.58
2023-02-18T09:25:58.559Z,2.47
2023-02-18T09:28:25.909Z,1.92
2023-02-18T09:30:52.798Z,1.77
2023-02-18T09:33:19.780Z,2.28
2023-02-18T09:35:47.033Z,0.80
2023-02-18T09:38:16.668Z,1.98
2023-02-18T09:40:53.520Z,1.75
2023-02-18T09:43:41.775Z,1.80
2023-02-18T09:46:35.860Z,1.73
2023-02-18T09:49:06.260Z,1.67
2023-02-18T09:51:33.123Z,1.85
2023-02-18T09:53:59.746Z,2.35
2023-02-18T09:56:35.863Z,1.65
2023-02-18T09:59:06.701Z,1.50
2023-02-18T10:01:41.512Z,1.58
2023-02-18T10:04:36.860Z,2.00
2023-02-18T10:07:03.893Z,2.15
2023-02-18T10:09:35.130Z,1.70
2023-02-18T10:12:15.864Z,1.92
2023-02-18T10:14:47.265Z,1.55
2023-02-18T10:17:18.605Z,1.60
2023-02-18T10:19:48.713Z,1.63
2023-02-18T10:22:18.454Z,1.48
2023-02-18T10:25:03.417Z,1.98
2023-02-18T10:27:37.428Z,1.95
2023-02-18T10:30:32.674Z,1.70
2023-02-18T10:33:42.400Z,1.67
2023-02-18T10:36:33.576Z,1.67
2023-02-18T10:39:18.450Z,2.22
2023-02-18T10:42:09.055Z,3.20
2023-02-18T10:44:53.849Z,2.53
2023-02-18T10:47:45.124Z,1.65
2023-02-18T10:50:36.580Z,1.67
2023-02-18T10:53:22.266Z,1.65
2023-02-18T10:55:48.922Z,1.23
2023-02-18T10:58:33.372Z,1.58
2023-02-18T11:01:17.609Z,1.35
2023-02-18T11:03:49.825Z,0.93
2023-02-18T11:06:20.173Z,1.38
2023-02-18T11:08:47.757Z,1.55
2023-02-18T11:11:30.337Z,1.25
2023-02-18T11:14:00.687Z,1.70
2023-02-18T11:17:07.386Z,1.70
2023-02-18T11:19:36.712Z,1.30
2023-02-18T11:22:14.243Z,2.25
2023-02-18T11:24:40.862Z,1.95
2023-02-18T11:27:22.225Z,1.88
2023-02-18T11:29:55.765Z,1.75
2023-02-18T11:32:26.015Z,1.50
2023-02-18T11:34:52.620Z,1.33
2023-02-18T11:37:21.283Z,1.55
2023-02-18T11:39:51.656Z,1.73
2023-02-18T11:42:21.670Z,2.42
2023-02-18T11:47:22.819Z,2.08
2023-02-18T11:50:08.267Z,2.22
2023-02-18T11:52:38.989Z,1.85
2023-02-18T11:55:22.494Z,2.45
2023-02-18T11:57:56.470Z,2.25
2023-02-18T12:00:42.359Z,2.17
2023-02-18T12:03:40.954Z,2.13
2023-02-18T12:06:33.516Z,2.72
2023-02-18T12:09:31.362Z,1.67
2023-02-18T12:12:02.628Z,2.10
2023-02-18T12:14:29.694Z,2.47
2023-02-18T12:18:01.028Z,2.08
2023-02-18T12:20:56.586Z,2.35
2023-02-18T12:23:38.487Z,2.13
2023-02-18T12:26:33.994Z,1.48
2023-02-18T12:29:09.298Z,2.03
2023-02-18T12:31:50.683Z,1.80
2023-02-18T12:34:26.267Z,1.90
2023-02-18T12:37:08.163Z,2.65
2023-02-18T12:39:59.355Z,2.38
2023-02-18T12:42:39.555Z,2.15
2023-02-18T12:45:26.294Z,2.50
2023-02-18T12:48:14.844Z,2.35
2023-02-18T12:51:06.743Z,2.33
2023-02-18T12:53:45.604Z,2.65
2023-02-18T12:56:12.075Z,2.20
2023-02-18T12:58:53.034Z,2.42
2023-02-18T13:01:33.533Z,2.05
2023-02-18T13:04:16.573Z,2.20
2023-02-18T13:06:58.243Z,2.35
2023-02-18T13:10:02.545Z,2.22
2023-02-18T13:13:02.796Z,2.08
2023-02-18T13:15:58.656Z,2.22
2023-02-18T13:18:30.292Z,2.40
2023-02-18T13:21:01.077Z,1.88
2023-02-18T13:24:03.964Z,2.40
2023-02-18T13:26:33.500Z,2.03
2023-02-18T13:29:28.369Z,1.88
2023-02-18T13:32:19.469Z,2.08
2023-02-18T13:35:07.911Z,1.80
2023-02-18T13:38:03.988Z,1.40
2023-02-18T13:40:31.891Z,1.73
2023-02-18T13:43:18.245Z,1.90
2023-02-18T13:46:02.066Z,1.98
2023-02-18T13:48:30.085Z,1.70
2023-02-18T13:51:06.684Z,1.60
2023-02-18T13:53:37.836Z,1.77
2023-02-18T13:56:14.767Z,1.80
2023-02-18T13:58:48.028Z,1.83
2023-02-18T14:01:19.544Z,1.85
2023-02-18T14:03:45.990Z,1.80
2023-02-18T14:06:18.429Z,1.83
2023-02-18T14:08:45.826Z,1.92
2023-02-18T14:11:12.376Z,2.38
2023-02-18T14:13:47.364Z,1.98
2023-02-18T14:16:13.884Z,1.73
2023-02-18T14:18:40.430Z,1.77
2023-02-18T14:21:13.002Z,1.73
2023-02-18T14:23:55.012Z,2.40
2023-02-18T14:26:46.062Z,1.90
2023-02-18T14:29:19.235Z,1.73
2023-02-18T14:31:50.644Z,2.25
2023-02-18T14:34:36.027Z,2.28
2023-02-18T14:37:40.543Z,2.08
2023-02-18T14:40:39.287Z,2.13
2023-02-18T14:43:23.916Z,2.20
2023-02-18T14:46:00.970Z,2.28
2023-02-18T14:48:54.376Z,2.15
2023-02-18T14:51:24.137Z,1.70
2023-02-18T14:53:51.159Z,2.40
2023-02-18T14:56:20.615Z,2.00
2023-02-18T14:58:50.488Z,1.90
2023-02-18T15:01:21.133Z,2.83
2023-02-18T15:03:49.963Z,2.03
2023-02-18T15:06:37.531Z,2.03
2023-02-18T15:09:20.511Z,2.33
2023-02-18T15:11:51.444Z,2.10
2023-02-18T15:14:45.103Z,2.53
2023-02-18T15:19:48.939Z,10.02
2023-02-18T15:22:18.889Z,24.80
2023-02-18T15:27:14.071Z,5.00
2023-02-18T15:29:41.302Z,4.88
2023-02-18T15:32:26.272Z,5.22
2023-02-18T15:35:02.731Z,2.58
2023-02-18T15:37:30.399Z,2.83
2023-02-18T15:39:57.354Z,2.47
2023-02-18T15:42:26.921Z,4.10
2023-02-18T15:44:57.942Z,2.70
2023-02-18T15:47:25.077Z,2.17
2023-02-18T15:49:58.027Z,2.40
2023-02-18T15:52:32.928Z,2.58
2023-02-18T15:55:18.351Z,2.25
2023-02-18T15:57:44.995Z,2.50
2023-02-18T16:00:20.777Z,2.45
2023-02-18T16:03:06.147Z,2.15
2023-02-18T16:05:37.762Z,1.63
2023-02-18T16:08:28.361Z,2.40
2023-02-18T16:11:03.872Z,2.50
2023-02-18T16:13:31.403Z,2.92
2023-02-18T16:16:01.077Z,2.72
2023-02-18T16:18:35.005Z,3.20
2023-02-18T16:21:03.591Z,2.47
2023-02-18T16:24:01.197Z,3.28
2023-02-18T16:26:39.944Z,2.97
2023-02-18T16:29:14.882Z,2.55
2023-02-18T16:31:42.462Z,3.08
2023-02-18T16:34:09.211Z,2.83
2023-02-18T16:36:35.863Z,2.95
2023-02-18T16:39:02.752Z,2.83
2023-02-18T16:41:29.442Z,2.65
2023-02-18T16:43:56.623Z,4.15
2023-02-18T16:46:23.980Z,3.45
2023-02-18T16:48:52.978Z,2.65
2023-02-18T16:51:25.653Z,3.58
2023-02-18T16:53:52.373Z,3.17
2023-02-18T16:56:22.037Z,3.20
2023-02-18T16:58:48.725Z,3.53
2023-02-18T17:01:29.264Z,3.50
2023-02-18T17:03:57.008Z,3.60
2023-02-18T17:06:23.818Z,3.55
2023-02-18T17:08:50.692Z,3.45
2023-02-18T17:11:23.720Z,3.65
2023-02-18T17:13:50.624Z,4.15
2023-02-18T17:16:18.452Z,4.50
2023-02-18T17:18:45.989Z,3.80
2023-02-18T17:21:26.572Z,3.75
2023-02-18T17:23:53.367Z,4.55
2023-02-18T17:26:23.629Z,4.88
2023-02-18T17:28:51.211Z,3.67
2023-02-18T17:31:29.683Z,3.83
2023-02-18T17:34:03.913Z,4.45
2023-02-18T17:36:30.423Z,4.50
2023-02-18T17:38:57.619Z,4.45
2023-02-18T17:41:24.166Z,4.55
2023-02-18T17:43:50.735Z,5.13
2023-02-18T17:46:19.186Z,5.68
2023-02-18T17:48:46.914Z,5.10
2023-02-18T17:51:28.107Z,5.95
2023-02-18T17:53:55.194Z,4.38
2023-02-18T17:56:22.123Z,4.30
2023-02-18T17:58:49.086Z,4.75
2023-02-18T18:01:15.986Z,4.25
2023-02-18T18:03:42.631Z,5.35
2023-02-18T18:06:19.798Z,4.10
2023-02-18T18:08:49.204Z,4.22
2023-02-18T18:11:22.606Z,3.30
2023-02-18T18:13:49.836Z,3.63
2023-02-18T18:16:17.862Z,4.05
2023-02-18T18:18:44.475Z,4.43
2023-02-18T18:21:35.108Z,4.05
2023-02-18T18:24:02.477Z,3.25
2023-02-18T18:26:29.017Z,3.35
2023-02-18T18:28:55.561Z,4.40
2023-02-18T18:31:22.175Z,7.03
2023-02-18T18:33:50.594Z,4.05
2023-02-18T18:36:18.851Z,4.07
2023-02-18T18:38:45.815Z,4.47
2023-02-18T18:41:15.528Z,4.07
2023-02-18T18:43:42.242Z,4.85
2023-02-18T18:46:11.702Z,4.38
2023-02-18T18:48:38.375Z,4.38
2023-02-18T18:51:05.462Z,4.57
2023-02-18T18:53:34.331Z,4.25
2023-02-18T18:56:09.487Z,4.38
2023-02-18T18:58:36.030Z,4.50
2023-02-18T19:01:04.469Z,4.75
2023-02-18T19:03:31.809Z,4.30
2023-02-18T19:05:58.387Z,4.45
2023-02-18T19:08:25.531Z,3.92
2023-02-18T19:10:54.992Z,4.22
2023-02-18T19:13:24.626Z,3.40
2023-02-18T19:15:59.504Z,3.75
2023-02-18T19:18:26.018Z,3.33
2023-02-18T19:20:52.494Z,3.78
2023-02-18T19:23:19.125Z,3.65
2023-02-18T19:25:45.622Z,4.00
2023-02-18T19:28:12.234Z,4.32
2023-02-18T19:30:41.256Z,3.95
2023-02-18T19:33:08.487Z,3.60
2023-02-18T19:35:35.035Z,3.33
2023-02-18T19:38:01.627Z,3.30
2023-02-18T19:40:30.691Z,4.18
2023-02-18T19:42:57.501Z,3.08
2023-02-18T19:45:24.605Z,4.43
2023-02-18T19:47:56.230Z,3.72
2023-02-18T19:50:24.401Z,3.85
2023-02-18T19:52:55.176Z,3.42
2023-02-18T19:55:22.661Z,3.20
2023-02-18T19:57:50.267Z,3.90
2023-02-18T20:00:19.212Z,4.10
2023-02-18T20:02:46.250Z,4.20
2023-02-18T20:05:13.443Z,4.63
2023-02-18T20:07:40.632Z,3.85
2023-02-18T20:10:10.026Z,4.65
2023-02-18T20:12:36.923Z,4.45
2023-02-18T20:15:04.028Z,5.00
2023-02-18T20:17:31.720Z,4.18
2023-02-18T20:19:58.286Z,4.50
2023-02-18T20:22:24.745Z,4.45
2023-02-18T20:24:54.381Z,4.03
2023-02-18T20:27:20.993Z,3.88
2023-02-18T20:29:47.654Z,4.20
2023-02-18T20:32:14.324Z,4.15
2023-02-18T20:34:41.454Z,3.47
2023-02-18T20:37:07.968Z,4.63
2023-02-18T20:39:35.196Z,3.72
2023-02-18T20:42:11.165Z,3.85
2023-02-18T20:44:42.220Z,4.22
2023-02-18T20:47:08.853Z,4.00
2023-02-18T20:49:35.409Z,3.22
2023-02-18T20:52:02.128Z,3.67
2023-02-18T20:54:30.611Z,3.22
2023-02-18T20:56:57.392Z,4.47
2023-02-18T20:59:24.356Z,3.60
2023-02-18T21:01:51.037Z,4.18
2023-02-18T21:04:19.793Z,3.42
2023-02-18T21:06:47.519Z,3.90
2023-02-18T21:09:15.657Z,4.07
2023-02-18T21:11:43.633Z,3.42
2023-02-18T21:14:11.190Z,4.22
2023-02-18T21:16:42.916Z,3.83
2023-02-18T21:19:14.065Z,4.30
2023-02-18T21:21:42.150Z,4.28
2023-02-18T21:24:09.190Z,3.58
2023-02-18T21:26:36.712Z,3.50
2023-02-18T21:29:07.240Z,3.13
2023-02-18T21:31:40.004Z,3.53
2023-02-18T21:34:11.895Z,3.83
2023-02-18T21:36:38.593Z,3.00
2023-02-18T21:39:08.019Z,2.55
2023-02-18T21:41:37.971Z,2.53
2023-02-18T21:44:09.659Z,2.38
2023-02-18T21:46:37.335Z,2.40
2023-02-18T21:49:06.127Z,2.40
2023-02-18T21:51:38.696Z,2.33
2023-02-18T21:54:05.451Z,2.15
2023-02-18T21:56:32.056Z,2.10
2023-02-18T21:58:58.614Z,2.30
2023-02-18T22:01:27.402Z,2.50
2023-02-18T22:03:55.362Z,2.00
2023-02-18T22:06:22.774Z,1.65
2023-02-18T22:08:49.460Z,2.30
2023-02-18T22:11:16.162Z,2.67
2023-02-18T22:13:42.750Z,3.30
2023-02-18T22:16:09.725Z,3.05
2023-02-18T22:18:36.492Z,2.95
2023-02-18T22:21:08.882Z,3.17
2023-02-18T22:23:35.843Z,3.33
2023-02-18T22:26:07.222Z,3.72
2023-02-18T22:28:34.466Z,3.67
2023-02-18T22:31:05.851Z,4.53
2023-02-18T22:33:35.314Z,4.88
2023-02-18T22:36:03.224Z,4.82
2023-02-18T22:38:30.024Z,5.53
2023-02-18T22:40:56.633Z,4.95
2023-02-18T22:43:23.181Z,4.97
2023-02-18T22:45:49.741Z,4.32
2023-02-18T22:48:17.854Z,4.63
2023-02-18T22:50:46.162Z,5.43
2023-02-18T22:53:12.642Z,4.30
2023-02-18T22:55:39.153Z,4.00
2023-02-18T22:58:05.720Z,4.07
2023-02-18T23:00:32.187Z,4.03
2023-02-18T23:02:58.713Z,4.55
2023-02-18T23:05:25.316Z,4.28
2023-02-18T23:07:51.840Z,4.40
2023-02-18T23:10:18.642Z,4.95
2023-02-18T23:12:45.191Z,4.40
2023-02-18T23:15:14.155Z,5.75
2023-02-18T23:17:40.912Z,4.43
2023-02-18T23:20:10.596Z,4.57
2023-02-18T23:22:37.093Z,5.22
2023-02-18T23:25:05.401Z,4.28
2023-02-18T23:27:32.036Z,6.20
2023-02-18T23:30:01.532Z,4.90
2023-02-18T23:32:28.194Z,5.78
2023-02-18T23:34:54.792Z,4.20
2023-02-18T23:37:21.342Z,5.55
2023-02-18T23:39:47.823Z,5.38
2023-02-18T23:42:14.383Z,5.55
2023-02-18T23:44:40.938Z,4.45
2023-02-18T23:47:07.484Z,3.90
2023-02-18T23:49:34.240Z,4.30
2023-02-18T23:52:00.873Z,3.72
2023-02-18T23:54:27.409Z,4.55
2023-02-18T23:56:53.940Z,5.75
2023-02-18T23:59:20.609Z,5.63
